Time;durP1;ratioP1;P1;durP2;ratioP2;P2;SDS_P1;SDS_P2;PMS_P1;PMS_P2;Temp;Humidity;BMP_temperature;BMP_pressure;BME280_temperature;BME280_humidity;BME280_pressure;Samples;Min_cycle;Max_cycle;Signal;HPM_P1;HPM_P2
2023/01/09 00:02:16;;;;;;;0.70;0.30;;;12.30;57.50;;;;;;5021713;28;20049;-47
2023/01/09 00:04:43;;;;;;;0.50;0.40;;;12.20;57.40;;;;;;5019540;28;20053;-44
2023/01/09 00:07:10;;;;;;;1.95;0.60;;;12.20;57.90;;;;;;5015570;28;20066;-46
2023/01/09 00:09:38;;;;;;;2.22;0.40;;;12.20;57.50;;;;;;5020187;28;20384;-42
2023/01/09 00:12:05;;;;;;;3.15;0.63;;;12.20;57.50;;;;;;5023650;28;20053;-50
2023/01/09 00:14:33;;;;;;;1.27;0.38;;;12.20;57.60;;;;;;5031922;28;20496;-48
2023/01/09 00:17:00;;;;;;;2.88;0.50;;;12.20;57.60;;;;;;5029920;28;20517;-51
2023/01/09 00:19:28;;;;;;;0.75;0.50;;;12.20;57.60;;;;;;5023019;28;20049;-48
2023/01/09 00:21:56;;;;;;;1.70;0.60;;;12.20;57.70;;;;;;5026435;28;20057;-51
2023/01/09 00:24:23;;;;;;;1.85;0.50;;;12.20;57.70;;;;;;5028811;28;20050;-45
2023/01/09 00:26:53;;;;;;;0.73;0.40;;;12.20;57.80;;;;;;5018483;28;20061;-49
2023/01/09 00:29:20;;;;;;;0.95;0.40;;;12.20;57.80;;;;;;5023588;28;20084;-47
2023/01/09 00:31:47;;;;;;;1.65;0.40;;;12.10;57.70;;;;;;5021856;28;20049;-49
2023/01/09 00:34:15;;;;;;;0.52;0.20;;;12.10;57.70;;;;;;5028312;28;20052;-47
2023/01/09 00:36:43;;;;;;;1.00;0.40;;;12.10;57.70;;;;;;5029974;28;20053;-47
2023/01/09 00:39:11;;;;;;;0.82;0.35;;;12.10;58.10;;;;;;5024922;28;20065;-45
2023/01/09 00:41:41;;;;;;;0.32;0.22;;;12.10;57.60;;;;;;5023657;28;20049;-49
2023/01/09 00:44:13;;;;;;;0.65;0.40;;;12.10;57.60;;;;;;5028548;28;20053;-50
2023/01/09 00:46:44;;;;;;;0.47;0.30;;;12.10;57.70;;;;;;5020413;28;20061;-51
2023/01/09 00:49:14;;;;;;;1.65;0.38;;;12.00;57.70;;;;;;5021202;28;20505;-50
2023/01/09 00:51:43;;;;;;;2.70;0.30;;;12.00;57.60;;;;;;5016941;28;20057;-45
2023/01/09 00:54:13;;;;;;;2.30;0.40;;;12.00;57.60;;;;;;5028622;28;20519;-45
2023/01/09 00:56:40;;;;;;;0.93;0.30;;;12.00;57.50;;;;;;5021457;28;20065;-48
2023/01/09 00:59:08;;;;;;;0.22;0.20;;;12.00;57.50;;;;;;5028114;28;20053;-48
2023/01/09 01:01:35;;;;;;;0.45;0.15;;;12.00;57.50;;;;;;5027199;28;20075;-50
2023/01/09 01:07:37;;;;;;;1.02;0.20;;;12.00;57.50;;;;;;5026497;28;20056;-49
2023/01/09 01:09:36;;;;;;;0.28;0.20;;;12.00;57.40;;;;;;5036865;28;20052;-50
2023/01/09 01:12:05;;;;;;;1.10;0.10;;;11.90;57.30;;;;;;5034428;28;20083;-47
2023/01/09 01:14:34;;;;;;;0.10;0.10;;;11.90;57.30;;;;;;5029220;28;20519;-46
2023/01/09 01:17:01;;;;;;;0.22;0.10;;;11.90;57.20;;;;;;5026228;28;20056;-45
2023/01/09 01:19:28;;;;;;;0.10;0.10;;;11.90;57.20;;;;;;5023476;28;20061;-51
2023/01/09 01:21:57;;;;;;;1.30;0.20;;;11.90;57.30;;;;;;5041654;28;20401;-47
2023/01/09 01:24:24;;;;;;;0.10;0.10;;;11.80;57.20;;;;;;5032679;28;20064;-46
2023/01/09 01:26:51;;;;;;;0.35;0.05;;;11.80;57.10;;;;;;5023667;28;20413;-49
2023/01/09 01:29:19;;;;;;;0.10;0.00;;;11.80;57.10;;;;;;5035753;28;20049;-50
2023/01/09 01:31:46;;;;;;;0.25;0.00;;;11.80;57.10;;;;;;5035899;28;20061;-47
2023/01/09 01:34:13;;;;;;;0.80;0.00;;;11.80;56.90;;;;;;5023592;28;20053;-50
2023/01/09 01:36:40;;;;;;;0.95;0.13;;;11.80;56.90;;;;;;5029809;28;20049;-48
2023/01/09 01:39:09;;;;;;;0.00;0.00;;;11.80;57.00;;;;;;5028795;28;20402;-47
2023/01/09 01:41:37;;;;;;;0.03;0.00;;;11.70;57.00;;;;;;5024710;28;20054;-44
2023/01/09 01:44:07;;;;;;;0.22;0.03;;;11.70;57.00;;;;;;5028638;28;20433;-49
2023/01/09 01:46:34;;;;;;;0.10;0.10;;;11.70;57.10;;;;;;5021279;28;20057;-47
2023/01/09 01:49:04;;;;;;;2.20;0.05;;;11.70;57.10;;;;;;5033959;28;20682;-46
2023/01/09 01:51:35;;;;;;;0.20;0.10;;;11.70;57.20;;;;;;5025680;28;20059;-48
2023/01/09 01:54:08;;;;;;;0.10;0.10;;;11.70;57.10;;;;;;5029480;28;20057;-47
2023/01/09 01:56:40;;;;;;;0.40;0.10;;;11.70;57.10;;;;;;5031531;28;20443;-44
2023/01/09 01:59:13;;;;;;;0.95;0.20;;;11.70;57.20;;;;;;5030861;28;20410;-45
2023/01/09 02:01:45;;;;;;;0.10;0.00;;;11.70;57.10;;;;;;5018267;28;20064;-49
2023/01/09 02:04:13;;;;;;;0.40;0.10;;;11.60;57.00;;;;;;5031726;28;20052;-50
2023/01/09 02:06:41;;;;;;;0.00;0.00;;;11.60;57.10;;;;;;5025434;28;20057;-45
2023/01/09 02:09:10;;;;;;;0.80;0.15;;;11.60;57.10;;;;;;5025067;28;20521;-48
2023/01/09 02:11:44;;;;;;;0.10;0.00;;;11.60;57.10;;;;;;5026237;28;20052;-48
2023/01/09 02:14:11;;;;;;;;;;;11.60;57.10;;;;;;5023777;28;20417;-50
2023/01/09 02:16:52;;;;;;;0.22;0.10;;;11.60;57.30;;;;;;5027237;28;20285;-50
2023/01/09 02:19:42;;;;;;;0.00;0.00;;;11.60;57.10;;;;;;5035749;28;20045;-49
2023/01/09 02:22:19;;;;;;;0.00;0.00;;;11.60;57.60;;;;;;5035207;28;20660;-50
2023/01/09 02:25:09;;;;;;;1.65;0.10;;;11.60;57.20;;;;;;5018555;28;20057;-46
2023/01/09 02:28:06;;;;;;;0.30;0.10;;;11.60;57.10;;;;;;5025032;28;20065;-46
2023/01/09 02:30:43;;;;;;;0.15;0.10;;;11.60;57.20;;;;;;5026644;28;20053;-50
2023/01/09 02:33:28;;;;;;;0.43;0.10;;;11.60;57.10;;;;;;5025429;28;20049;-48
2023/01/09 02:36:07;;;;;;;0.20;0.03;;;11.60;57.20;;;;;;5031042;28;20064;-48
2023/01/09 02:38:41;;;;;;;0.35;0.10;;;11.60;57.10;;;;;;5021319;28;20053;-48
2023/01/09 02:41:14;;;;;;;0.30;0.10;;;11.60;57.10;;;;;;5027521;28;20053;-47
2023/01/09 02:43:41;;;;;;;0.30;0.03;;;11.60;57.00;;;;;;5022407;28;20512;-46
2023/01/09 02:46:19;;;;;;;0.10;0.00;;;11.50;56.90;;;;;;5019015;28;20056;-46
2023/01/09 02:48:49;;;;;;;0.10;0.10;;;11.50;56.80;;;;;;5023268;28;20065;-47
2023/01/09 02:51:25;;;;;;;0.45;0.10;;;11.50;56.80;;;;;;5036533;28;20045;-48
2023/01/09 02:54:05;;;;;;;0.15;0.10;;;11.50;56.70;;;;;;5029393;28;20049;-46
2023/01/09 02:56:45;;;;;;;0.15;0.00;;;11.50;56.70;;;;;;5027687;28;20532;-45
2023/01/09 02:59:27;;;;;;;1.05;0.20;;;11.40;56.70;;;;;;5020558;28;20053;-48
2023/01/09 03:02:10;;;;;;;1.05;0.10;;;11.40;56.70;;;;;;5030096;28;20068;-49
2023/01/09 03:04:46;;;;;;;0.47;0.20;;;11.40;56.70;;;;;;5028815;28;20060;-45
2023/01/09 03:07:19;;;;;;;0.20;0.20;;;11.30;56.60;;;;;;5030069;28;20516;-47
2023/01/09 03:09:50;;;;;;;0.40;0.13;;;11.30;56.60;;;;;;5033284;28;20049;-49
2023/01/09 03:12:21;;;;;;;0.08;0.00;;;11.30;56.60;;;;;;5032005;28;20079;-46
2023/01/09 03:14:51;;;;;;;0.00;0.00;;;11.30;56.70;;;;;;5020926;28;20054;-47
2023/01/09 03:17:26;;;;;;;0.00;0.00;;;11.30;56.70;;;;;;5024507;28;20049;-48
2023/01/09 03:19:54;;;;;;;0.63;0.20;;;11.30;56.70;;;;;;5030325;28;20053;-46
2023/01/09 03:22:21;;;;;;;0.28;0.17;;;11.30;56.80;;;;;;5023991;28;20053;-46
2023/01/09 03:24:48;;;;;;;0.10;0.10;;;11.20;56.80;;;;;;5028408;28;20501;-46
2023/01/09 03:27:16;;;;;;;0.13;0.10;;;11.20;56.90;;;;;;5018766;28;20056;-47
2023/01/09 03:29:43;;;;;;;0.45;0.20;;;11.20;57.00;;;;;;5020174;28;20065;-46
2023/01/09 03:32:10;;;;;;;0.15;0.10;;;11.20;57.00;;;;;;5030627;28;20060;-48
2023/01/09 03:34:39;;;;;;;0.30;0.08;;;11.20;57.10;;;;;;5028615;28;20512;-46
2023/01/09 03:37:06;;;;;;;0.90;0.17;;;11.20;57.10;;;;;;5025842;28;20053;-48
2023/01/09 03:39:33;;;;;;;0.25;0.20;;;11.20;57.00;;;;;;5021302;28;20048;-49
2023/01/09 03:42:00;;;;;;;1.67;0.10;;;11.20;57.00;;;;;;5034977;28;20409;-48
2023/01/09 03:44:28;;;;;;;0.57;0.20;;;11.20;57.00;;;;;;5022094;28;20425;-49
2023/01/09 03:46:55;;;;;;;0.20;0.17;;;11.20;56.90;;;;;;5030512;28;20049;-47
2023/01/09 03:49:22;;;;;;;1.50;0.30;;;11.20;56.90;;;;;;5032134;28;20049;-48
2023/01/09 03:51:51;;;;;;;0.85;0.20;;;11.10;56.70;;;;;;5020004;28;20057;-48
2023/01/09 03:54:18;;;;;;;0.63;0.35;;;11.10;56.50;;;;;;5026601;28;20060;-47
2023/01/09 03:56:45;;;;;;;1.17;0.20;;;11.10;56.50;;;;;;5025078;28;20057;-46
2023/01/09 03:59:12;;;;;;;3.00;0.43;;;11.10;56.40;;;;;;5017105;28;20060;-46
2023/01/09 04:01:40;;;;;;;1.45;0.40;;;11.00;56.30;;;;;;5027453;28;20424;-49
2023/01/09 04:04:07;;;;;;;0.10;0.10;;;11.00;56.20;;;;;;5019518;28;20057;-47
2023/01/09 04:06:34;;;;;;;1.25;0.30;;;11.00;56.10;;;;;;5023240;28;20413;-47
2023/01/09 04:09:03;;;;;;;1.17;0.38;;;11.00;56.10;;;;;;5026602;28;20045;-46
2023/01/09 04:11:30;;;;;;;0.20;0.10;;;10.90;56.20;;;;;;5028282;28;20045;-47
2023/01/09 04:13:57;;;;;;;0.90;0.30;;;11.00;56.30;;;;;;5026128;28;20405;-50
2023/01/09 04:16:24;;;;;;;0.40;0.20;;;10.90;56.20;;;;;;5041477;28;20045;-48
2023/01/09 04:18:51;;;;;;;1.48;0.30;;;11.00;56.20;;;;;;5040482;28;20481;-46
2023/01/09 04:21:19;;;;;;;0.28;0.13;;;10.90;56.10;;;;;;5039541;28;20052;-46
2023/01/09 04:23:46;;;;;;;0.40;0.30;;;10.90;56.10;;;;;;5040242;28;20052;-46
2023/01/09 04:26:14;;;;;;;0.35;0.10;;;10.90;56.10;;;;;;5040455;28;20397;-48
2023/01/09 04:28:42;;;;;;;1.17;0.20;;;10.90;56.00;;;;;;5034381;28;20061;-49
2023/01/09 04:31:09;;;;;;;2.72;0.30;;;10.90;56.00;;;;;;5040978;28;20417;-49
2023/01/09 04:33:36;;;;;;;0.77;0.20;;;10.90;55.90;;;;;;5040639;28;20053;-49
2023/01/09 04:36:04;;;;;;;0.25;0.20;;;10.80;55.80;;;;;;5039925;28;20064;-46
2023/01/09 04:38:31;;;;;;;0.10;0.10;;;10.80;55.80;;;;;;5035705;28;20420;-47
2023/01/09 04:40:58;;;;;;;1.05;0.20;;;10.80;55.80;;;;;;5036845;28;20053;-51
2023/01/09 04:43:27;;;;;;;0.65;0.20;;;10.80;55.80;;;;;;5033425;28;20056;-49
2023/01/09 04:45:54;;;;;;;2.10;0.30;;;10.70;55.70;;;;;;5036876;28;20056;-49
2023/01/09 04:48:22;;;;;;;0.45;0.28;;;10.70;55.70;;;;;;5042820;28;20049;-48
2023/01/09 04:50:49;;;;;;;1.67;0.30;;;10.70;55.70;;;;;;5042970;28;20053;-48
2023/01/09 04:53:16;;;;;;;0.85;0.30;;;10.60;55.60;;;;;;5040422;28;20416;-52
2023/01/09 04:55:43;;;;;;;0.90;0.20;;;10.60;55.60;;;;;;5040543;28;20428;-46
2023/01/09 04:58:10;;;;;;;0.95;0.28;;;10.60;55.60;;;;;;5041154;28;20060;-48
2023/01/09 05:00:39;;;;;;;0.77;0.30;;;10.50;55.60;;;;;;5042064;28;20060;-47
2023/01/09 05:03:06;;;;;;;1.55;0.28;;;10.50;55.60;;;;;;5058848;28;20048;-44
2023/01/09 05:05:33;;;;;;;0.55;0.30;;;10.50;55.70;;;;;;5064686;28;20055;-49
2023/01/09 05:08:01;;;;;;;0.70;0.32;;;10.50;55.80;;;;;;5063453;28;20052;-46
2023/01/09 05:10:28;;;;;;;1.17;0.20;;;10.40;55.80;;;;;;5063020;28;21902;-45
2023/01/09 05:12:55;;;;;;;0.75;0.22;;;10.40;55.90;;;;;;5058463;28;20056;-48
2023/01/09 05:15:22;;;;;;;0.75;0.43;;;10.40;56.00;;;;;;5048582;28;20049;-46
2023/01/09 05:17:51;;;;;;;0.65;0.32;;;10.40;56.00;;;;;;5028277;28;20402;-49
2023/01/09 05:20:18;;;;;;;1.25;0.40;;;10.40;56.10;;;;;;5042147;28;20056;-47
2023/01/09 05:22:45;;;;;;;2.80;0.32;;;10.40;56.10;;;;;;5048466;28;20489;-47
2023/01/09 05:25:13;;;;;;;2.25;0.32;;;10.30;56.10;;;;;;5047949;28;20057;-46
2023/01/09 05:27:42;;;;;;;1.17;0.65;;;10.30;56.70;;;;;;5035052;28;20045;-50
2023/01/09 05:30:11;;;;;;;18.63;7.57;;;10.30;56.20;;;;;;5038352;28;20057;-51
2023/01/09 05:32:38;;;;;;;27.77;11.45;;;10.30;56.20;;;;;;5048085;28;20048;-48
2023/01/09 05:35:08;;;;;;;7.28;3.13;;;10.30;56.30;;;;;;5050868;28;20056;-46
2023/01/09 05:37:35;;;;;;;6.13;0.88;;;10.30;56.30;;;;;;5036147;28;20060;-50
2023/01/09 05:40:02;;;;;;;5.25;0.95;;;10.30;56.30;;;;;;5041361;28;20408;-47
2023/01/09 05:42:30;;;;;;;1.35;0.47;;;10.30;56.40;;;;;;5039842;28;20048;-46
2023/01/09 05:44:57;;;;;;;2.95;0.80;;;10.30;56.30;;;;;;5037478;28;20516;-45
2023/01/09 05:47:24;;;;;;;4.13;0.60;;;10.30;56.40;;;;;;5043454;28;20052;-47
2023/01/09 05:49:51;;;;;;;2.03;0.40;;;10.30;56.40;;;;;;5051753;28;20063;-45
2023/01/09 05:52:20;;;;;;;1.45;0.32;;;10.30;56.40;;;;;;5051876;28;20049;-46
2023/01/09 05:54:47;;;;;;;3.25;0.43;;;10.30;56.50;;;;;;5048850;28;20052;-49
2023/01/09 05:57:14;;;;;;;3.67;0.50;;;10.30;56.50;;;;;;5043559;28;20057;-48
2023/01/09 05:59:41;;;;;;;1.67;0.32;;;10.30;56.50;;;;;;5038576;28;20052;-46
2023/01/09 06:02:09;;;;;;;4.85;1.55;;;10.30;56.50;;;;;;5051509;28;20057;-47
2023/01/09 06:04:36;;;;;;;3.88;1.30;;;10.40;56.50;;;;;;5048348;28;20507;-45
2023/01/09 06:07:03;;;;;;;5.93;1.45;;;10.40;56.60;;;;;;5032285;28;20060;-45
2023/01/09 06:09:32;;;;;;;1.67;0.50;;;10.40;56.50;;;;;;5039173;28;20044;-47
2023/01/09 06:11:59;;;;;;;2.55;0.55;;;10.40;56.50;;;;;;5044488;28;20056;-47
2023/01/09 06:14:26;;;;;;;2.65;0.70;;;10.40;56.60;;;;;;5034055;28;20052;-44
2023/01/09 06:16:56;;;;;;;3.78;0.75;;;10.40;56.60;;;;;;5042974;28;20057;-46
2023/01/09 06:19:23;;;;;;;6.20;0.55;;;10.40;56.50;;;;;;5039479;28;20053;-48
2023/01/09 06:21:52;;;;;;;5.05;0.52;;;10.40;56.50;;;;;;5043363;28;20501;-46
2023/01/09 06:24:19;;;;;;;2.15;0.60;;;10.40;56.40;;;;;;5032670;28;20045;-44
2023/01/09 06:26:48;;;;;;;6.55;0.60;;;10.40;56.50;;;;;;5047960;28;20057;-47
2023/01/09 06:29:15;;;;;;;3.67;0.60;;;10.40;56.50;;;;;;5028080;28;20053;-49
2023/01/09 06:31:42;;;;;;;3.13;0.70;;;10.50;56.50;;;;;;5049288;28;20055;-46
2023/01/09 06:34:11;;;;;;;1.38;0.45;;;10.40;56.50;;;;;;5039592;28;20072;-45
2023/01/09 06:36:38;;;;;;;3.15;0.50;;;10.40;56.40;;;;;;5037179;28;20515;-50
2023/01/09 06:39:06;;;;;;;2.65;0.40;;;10.50;56.30;;;;;;5024713;28;20056;-49
2023/01/09 06:41:33;;;;;;;1.70;0.57;;;10.50;56.40;;;;;;5025464;28;20048;-49
2023/01/09 06:44:01;;;;;;;3.45;0.47;;;10.50;56.30;;;;;;5037472;28;20057;-48
2023/01/09 06:46:28;;;;;;;1.80;0.50;;;10.50;56.30;;;;;;5043314;28;20127;-49
2023/01/09 06:48:56;;;;;;;1.13;0.50;;;10.50;56.40;;;;;;5032262;28;20465;-47
2023/01/09 06:51:23;;;;;;;3.08;0.60;;;10.40;56.30;;;;;;5036756;28;20488;-48
2023/01/09 06:53:50;;;;;;;1.50;0.40;;;10.40;56.30;;;;;;5046143;28;20057;-46
2023/01/09 06:56:18;;;;;;;3.75;0.80;;;10.40;56.40;;;;;;5035646;28;20059;-48
2023/01/09 06:58:46;;;;;;;1.95;0.40;;;10.40;56.40;;;;;;5033636;28;20058;-48
2023/01/09 07:01:14;;;;;;;1.73;0.50;;;10.40;56.40;;;;;;5032416;28;20380;-46
2023/01/09 07:03:42;;;;;;;2.22;0.45;;;10.40;56.40;;;;;;5033397;28;20520;-46
2023/01/09 07:06:09;;;;;;;2.90;0.47;;;10.50;56.40;;;;;;5034806;28;20071;-47
2023/01/09 07:08:36;;;;;;;1.27;0.38;;;10.50;56.40;;;;;;5034993;28;20059;-47
2023/01/09 07:11:03;;;;;;;5.93;0.50;;;10.50;56.40;;;;;;5027956;28;20062;-51
2023/01/09 07:13:31;;;;;;;4.47;0.70;;;10.50;56.40;;;;;;5045872;28;20515;-47
2023/01/09 07:15:58;;;;;;;3.03;0.47;;;10.50;56.30;;;;;;5053563;28;20049;-50
2023/01/09 07:18:26;;;;;;;1.92;0.35;;;10.50;56.40;;;;;;5034961;28;20063;-47
2023/01/09 07:20:54;;;;;;;1.85;0.43;;;10.50;56.50;;;;;;5048490;28;20075;-48
2023/01/09 07:23:21;;;;;;;1.35;0.30;;;10.50;56.50;;;;;;5053336;28;20697;-46
2023/01/09 07:25:51;;;;;;;2.40;0.90;;;10.50;56.40;;;;;;5042349;28;20523;-48
2023/01/09 07:28:18;;;;;;;5.28;0.50;;;10.50;56.40;;;;;;5056190;28;20059;-48
2023/01/09 07:30:46;;;;;;;2.83;0.47;;;10.50;56.30;;;;;;5048904;28;20056;-45
2023/01/09 07:33:13;;;;;;;1.05;0.30;;;10.50;56.20;;;;;;5046464;28;20053;-49
2023/01/09 07:35:41;;;;;;;1.85;0.40;;;10.60;56.30;;;;;;5041630;28;20076;-49
2023/01/09 07:38:09;;;;;;;2.35;0.50;;;10.50;56.30;;;;;;5043596;28;20044;-48
2023/01/09 07:40:36;;;;;;;1.42;0.30;;;10.60;56.80;;;;;;5046977;28;20076;-44
2023/01/09 07:43:04;;;;;;;2.15;0.40;;;10.60;56.40;;;;;;5049627;28;20527;-45
2023/01/09 07:45:31;;;;;;;3.33;0.38;;;10.60;56.40;;;;;;5048441;28;20048;-49
2023/01/09 07:47:58;;;;;;;2.50;0.45;;;10.60;56.40;;;;;;5051488;28;20055;-50
2023/01/09 07:50:25;;;;;;;1.35;0.30;;;10.60;56.50;;;;;;5048733;28;20044;-49
2023/01/09 07:52:54;;;;;;;1.45;0.30;;;10.60;56.50;;;;;;5042530;28;20416;-48
2023/01/09 07:55:21;;;;;;;1.98;0.35;;;10.60;56.50;;;;;;5045107;28;20465;-49
2023/01/09 07:57:49;;;;;;;1.95;0.35;;;10.60;56.50;;;;;;5058345;28;20060;-50
2023/01/09 08:00:17;;;;;;;3.17;0.35;;;10.60;56.30;;;;;;5040168;28;20064;-50
2023/01/09 08:02:44;;;;;;;1.83;0.30;;;10.60;56.30;;;;;;5055074;28;20404;-51
2023/01/09 08:05:13;;;;;;;4.13;0.47;;;10.60;56.30;;;;;;5043693;28;20052;-46
2023/01/09 08:07:41;;;;;;;1.02;0.30;;;10.70;56.30;;;;;;5050347;28;20373;-48
2023/01/09 08:10:11;;;;;;;1.80;0.50;;;10.60;56.20;;;;;;5042660;28;20052;-49
2023/01/09 08:12:38;;;;;;;1.98;0.60;;;10.70;56.20;;;;;;5043279;28;20060;-49
2023/01/09 08:15:06;;;;;;;0.73;0.30;;;10.70;56.20;;;;;;5038229;28;20049;-51
2023/01/09 08:17:33;;;;;;;3.22;0.50;;;10.70;56.10;;;;;;5042160;28;20404;-48
2023/01/09 08:20:00;;;;;;;0.65;0.25;;;10.70;56.10;;;;;;5039921;28;21849;-47
2023/01/09 08:22:27;;;;;;;1.40;0.40;;;10.70;56.10;;;;;;5044531;28;20045;-49
2023/01/09 08:24:55;;;;;;;1.95;0.50;;;10.70;56.10;;;;;;5036653;28;20057;-48
2023/01/09 08:27:23;;;;;;;3.42;0.45;;;10.70;56.20;;;;;;5042401;28;20052;-49
2023/01/09 08:29:50;;;;;;;1.23;0.20;;;10.70;56.30;;;;;;5042834;28;20053;-50
2023/01/09 08:32:18;;;;;;;2.22;0.43;;;10.70;56.30;;;;;;5043022;28;20057;-47
2023/01/09 08:34:45;;;;;;;1.23;0.43;;;10.70;56.30;;;;;;5041159;28;20209;-50
2023/01/09 08:37:12;;;;;;;2.25;0.70;;;10.70;56.30;;;;;;5043536;28;20488;-48
2023/01/09 08:39:39;;;;;;;2.75;0.40;;;10.70;56.40;;;;;;5039295;28;20060;-49
2023/01/09 08:47:43;;;;;;;3.80;1.25;;;10.80;56.40;;;;;;5046783;28;20106;-49
2023/01/09 08:50:10;;;;;;;1.27;0.35;;;10.80;56.30;;;;;;5032348;28;20060;-45
2023/01/09 08:52:38;;;;;;;6.30;2.55;;;10.80;56.20;;;;;;5039637;28;20056;-46
2023/01/09 08:55:05;;;;;;;12.57;6.40;;;10.80;56.20;;;;;;5040951;28;20056;-46
2023/01/09 08:57:33;;;;;;;6.28;3.28;;;10.90;56.20;;;;;;5033657;28;20049;-45
2023/01/09 09:00:02;;;;;;;11.98;9.27;;;10.90;56.20;;;;;;5036260;28;20057;-47
2023/01/09 09:02:29;;;;;;;8.43;3.38;;;10.90;56.20;;;;;;5040604;28;20049;-48
2023/01/09 09:04:56;;;;;;;2.55;1.50;;;10.90;56.20;;;;;;5043036;28;20061;-47
2023/01/09 09:07:26;;;;;;;2.00;1.60;;;10.90;56.20;;;;;;5042467;28;20049;-46
2023/01/09 09:09:53;;;;;;;1.42;1.10;;;10.90;56.20;;;;;;5033757;28;20061;-49
2023/01/09 09:12:20;;;;;;;2.50;0.60;;;10.90;56.10;;;;;;5037194;28;20044;-48
2023/01/09 09:17:34;;;;;;;2.13;0.60;;;11.00;56.10;;;;;;5045615;28;20385;-46
2023/01/09 09:20:01;;;;;;;1.08;0.43;;;11.00;56.10;;;;;;5029602;28;20056;-47
2023/01/09 09:22:29;;;;;;;14.25;0.65;;;11.00;56.20;;;;;;5031254;28;20481;-51
2023/01/09 09:24:56;;;;;;;2.38;0.70;;;11.00;56.20;;;;;;5030815;28;20061;-48
2023/01/09 09:27:24;;;;;;;1.90;0.40;;;11.00;56.10;;;;;;5039861;28;20053;-46
2023/01/09 09:29:51;;;;;;;2.10;0.65;;;11.10;56.10;;;;;;5036791;28;20501;-47
2023/01/09 09:32:18;;;;;;;2.15;0.50;;;11.10;56.00;;;;;;5038615;28;20443;-47
2023/01/09 09:34:47;;;;;;;3.92;0.43;;;11.10;55.90;;;;;;5033947;28;20056;-47
2023/01/09 09:37:14;;;;;;;2.42;0.40;;;11.10;56.00;;;;;;5037535;28;20111;-46
2023/01/09 09:39:42;;;;;;;2.55;0.60;;;11.10;56.00;;;;;;5040577;28;20045;-48
2023/01/09 09:45:36;;;;;;;1.50;0.30;;;11.10;56.00;;;;;;5043898;28;20047;-47
2023/01/09 09:48:18;;;;;;;0.77;0.30;;;11.20;56.00;;;;;;5032716;28;20056;-50
2023/01/09 09:51:06;;;;;;;2.10;0.50;;;11.20;55.90;;;;;;5040392;28;20053;-47
2023/01/09 09:53:38;;;;;;;1.45;0.32;;;11.20;55.80;;;;;;5039199;28;20053;-46
2023/01/09 09:56:08;;;;;;;1.05;0.30;;;11.20;55.90;;;;;;5037870;28;20409;-45
2023/01/09 09:58:38;;;;;;;2.85;0.57;;;11.20;55.90;;;;;;5036667;28;20626;-48
2023/01/09 10:01:07;;;;;;;1.38;0.55;;;11.20;55.90;;;;;;5034976;28;20053;-46
2023/01/09 10:03:37;;;;;;;2.60;0.50;;;11.20;56.00;;;;;;5040473;28;20056;-45
2023/01/09 10:06:12;;;;;;;4.45;1.38;;;11.30;56.10;;;;;;5036342;28;20057;-47
2023/01/09 10:08:48;;;;;;;3.58;1.13;;;11.30;56.00;;;;;;5037492;28;20529;-46
2023/01/09 10:11:23;;;;;;;1.67;0.95;;;11.30;56.00;;;;;;5037309;28;20060;-50
2023/01/09 10:14:06;;;;;;;2.42;0.93;;;11.40;56.10;;;;;;5041236;28;20516;-51
2023/01/09 10:16:46;;;;;;;1.05;0.65;;;11.40;56.10;;;;;;5041403;28;20048;-48
2023/01/09 10:19:33;;;;;;;3.40;1.00;;;11.40;56.10;;;;;;5041193;28;20064;-49
2023/01/09 10:22:15;;;;;;;1.80;0.60;;;11.40;56.00;;;;;;5038202;28;20053;-45
2023/01/09 10:24:52;;;;;;;1.48;0.60;;;11.50;56.10;;;;;;5035045;28;20093;-49
2023/01/09 10:27:30;;;;;;;1.80;0.50;;;11.50;56.00;;;;;;5041793;28;20511;-47
2023/01/09 10:30:11;;;;;;;0.77;0.47;;;11.50;55.90;;;;;;5034775;28;20049;-46
2023/01/09 10:33:00;;;;;;;1.52;0.65;;;11.50;55.90;;;;;;5040269;28;20057;-46
2023/01/09 10:35:37;;;;;;;1.05;0.43;;;11.50;55.70;;;;;;5040067;28;20118;-48
2023/01/09 10:38:08;;;;;;;2.50;0.90;;;11.60;55.90;;;;;;5037558;28;20057;-49
2023/01/09 10:40:40;;;;;;;2.70;0.65;;;11.60;55.90;;;;;;5042574;28;20060;-47
2023/01/09 10:43:15;;;;;;;5.45;0.57;;;11.60;55.90;;;;;;5040912;28;20120;-47
2023/01/09 10:45:49;;;;;;;1.83;0.40;;;11.70;56.00;;;;;;5042610;28;20404;-48
2023/01/09 10:48:23;;;;;;;1.95;0.50;;;11.70;56.00;;;;;;5041148;28;20064;-49
2023/01/09 10:50:51;;;;;;;3.83;0.57;;;11.70;56.00;;;;;;5041717;28;20067;-46
2023/01/09 10:53:23;;;;;;;2.50;0.70;;;11.80;55.90;;;;;;5042057;28;20055;-49
2023/01/09 10:55:54;;;;;;;2.05;0.43;;;11.80;55.80;;;;;;5042782;28;20489;-45
2023/01/09 10:58:23;;;;;;;2.40;0.70;;;11.90;55.70;;;;;;5041410;28;20053;-50
2023/01/09 11:00:51;;;;;;;3.67;0.80;;;11.90;55.70;;;;;;5036218;28;20496;-52
2023/01/09 11:03:20;;;;;;;2.25;0.50;;;11.90;55.60;;;;;;5035821;28;20571;-46
2023/01/09 11:05:52;;;;;;;2.30;0.60;;;11.90;55.50;;;;;;5039380;28;20508;-47
2023/01/09 11:08:29;;;;;;;1.00;0.57;;;11.90;55.50;;;;;;5040645;28;20528;-45
2023/01/09 11:10:58;;;;;;;1.88;0.50;;;12.00;55.40;;;;;;5041269;28;20060;-50
2023/01/09 11:13:28;;;;;;;4.53;0.60;;;12.00;55.40;;;;;;5037761;28;20057;-48
2023/01/09 11:16:06;;;;;;;3.38;0.70;;;12.00;55.50;;;;;;5034064;28;20075;-46
2023/01/09 11:18:37;;;;;;;2.58;0.50;;;12.00;55.50;;;;;;5040743;28;20512;-47
2023/01/09 11:21:25;;;;;;;0.98;0.20;;;12.00;55.50;;;;;;5047307;28;20055;-48
2023/01/09 11:23:54;;;;;;;3.78;0.40;;;12.00;55.40;;;;;;5044369;28;20064;-46
2023/01/09 11:26:24;;;;;;;2.47;0.55;;;12.00;55.30;;;;;;5047465;28;20123;-46
2023/01/09 11:29:06;;;;;;;2.75;0.38;;;12.00;55.20;;;;;;5043728;28;20056;-47
2023/01/09 11:31:34;;;;;;;1.95;0.40;;;12.10;55.20;;;;;;5046400;28;20061;-46
2023/01/09 11:34:02;;;;;;;1.98;0.30;;;12.10;55.20;;;;;;5031786;28;20048;-47
2023/01/09 11:36:30;;;;;;;0.65;0.20;;;12.10;55.20;;;;;;5037787;28;20049;-45
2023/01/09 11:39:01;;;;;;;1.25;0.50;;;12.10;55.10;;;;;;5043882;28;20060;-48
2023/01/09 11:41:33;;;;;;;3.42;0.60;;;12.10;55.10;;;;;;5039717;28;20361;-50
2023/01/09 11:44:02;;;;;;;2.45;0.30;;;12.10;55.20;;;;;;5035779;28;20057;-46
2023/01/09 11:46:36;;;;;;;1.45;0.20;;;12.10;55.20;;;;;;5045338;28;20041;-49
2023/01/09 11:49:05;;;;;;;2.15;0.30;;;12.10;55.10;;;;;;5034236;28;20056;-44
2023/01/09 11:51:35;;;;;;;0.40;0.10;;;12.20;55.10;;;;;;5036795;28;20589;-45
2023/01/09 11:54:20;;;;;;;5.15;1.35;;;12.10;54.80;;;;;;5040743;28;20056;-46
2023/01/09 11:56:49;;;;;;;4.65;3.58;;;12.10;54.60;;;;;;5034925;28;20406;-46
2023/01/09 11:59:20;;;;;;;2.58;1.30;;;12.20;54.50;;;;;;5036770;28;20053;-46
2023/01/09 12:02:03;;;;;;;1.33;0.60;;;12.20;54.50;;;;;;5046166;28;20053;-46
2023/01/09 12:04:35;;;;;;;0.68;0.50;;;12.20;54.50;;;;;;5039371;28;20080;-48
2023/01/09 12:07:23;;;;;;;0.70;0.57;;;12.20;54.40;;;;;;5035507;28;20083;-50
2023/01/09 12:10:00;;;;;;;1.13;0.70;;;12.20;54.30;;;;;;5031870;28;20056;-46
2023/01/09 12:12:35;;;;;;;0.50;0.30;;;12.20;54.40;;;;;;5055386;28;20048;-49
2023/01/09 12:15:15;;;;;;;1.02;0.45;;;12.20;54.40;;;;;;5052003;28;20083;-46
2023/01/09 12:17:56;;;;;;;0.77;0.22;;;12.20;54.30;;;;;;5049896;28;20052;-44
2023/01/09 12:20:37;;;;;;;1.00;0.45;;;12.20;54.40;;;;;;5054829;28;20052;-48
2023/01/09 12:23:18;;;;;;;0.35;0.35;;;12.20;54.30;;;;;;5054928;28;20049;-46
2023/01/09 12:25:56;;;;;;;4.03;1.27;;;12.20;54.50;;;;;;5054851;28;20538;-47
2023/01/09 12:28:42;;;;;;;2.80;1.30;;;12.20;54.50;;;;;;5055305;28;20053;-49
2023/01/09 12:31:22;;;;;;;4.85;1.40;;;12.30;54.80;;;;;;5050652;28;20064;-46
2023/01/09 12:34:03;;;;;;;0.93;0.55;;;12.30;54.70;;;;;;5050066;28;20056;-45
2023/01/09 12:36:36;;;;;;;3.78;0.70;;;12.30;54.70;;;;;;5043983;28;20536;-48
2023/01/09 12:39:15;;;;;;;1.50;0.67;;;12.30;54.80;;;;;;5049599;28;20053;-47
2023/01/09 12:42:03;;;;;;;1.30;0.70;;;12.30;54.80;;;;;;5056914;28;20944;-45
2023/01/09 12:44:48;;;;;;;3.15;0.60;;;12.30;54.40;;;;;;5051746;28;20060;-46
2023/01/09 12:47:44;;;;;;;3.25;0.40;;;12.30;54.30;;;;;;5043491;28;20064;-48
2023/01/09 12:50:43;;;;;;;0.90;0.60;;;12.20;54.40;;;;;;5052011;28;20480;-44
2023/01/09 12:53:19;;;;;;;0.80;0.40;;;12.20;54.00;;;;;;5055551;28;20503;-47
2023/01/09 12:55:50;;;;;;;0.10;0.10;;;12.20;54.10;;;;;;5052873;28;20401;-47
2023/01/09 12:58:31;;;;;;;0.50;0.15;;;12.20;54.10;;;;;;5049879;28;20048;-48
2023/01/09 13:01:02;;;;;;;0.98;0.30;;;12.20;54.50;;;;;;5054257;28;20056;-45
2023/01/09 13:03:37;;;;;;;0.57;0.28;;;12.10;54.40;;;;;;5050642;28;20059;-48
2023/01/09 13:06:11;;;;;;;2.53;0.30;;;12.10;54.50;;;;;;5054184;28;20056;-45
2023/01/09 13:08:41;;;;;;;0.47;0.10;;;12.10;54.50;;;;;;5056870;28;20049;-45
2023/01/09 13:11:14;;;;;;;0.80;0.20;;;12.00;54.40;;;;;;5063213;28;20056;-46
2023/01/09 13:13:46;;;;;;;0.20;0.10;;;12.00;54.40;;;;;;5061855;28;20052;-44
2023/01/09 13:16:18;;;;;;;0.15;0.10;;;12.00;54.20;;;;;;5054477;28;20068;-44
2023/01/09 13:18:49;;;;;;;0.17;0.15;;;12.00;54.10;;;;;;5054818;28;20061;-48
2023/01/09 13:21:17;;;;;;;0.10;0.03;;;11.90;54.00;;;;;;5056062;28;20298;-46